Main page
METAR-TAF:

METAR-TAF

Airports :

Sumburgh Airport

Sumburgh, Shetland, Scotland

latitude: 59-53N, longitude: 001-18W, elevation: 5 m

Current weather observation

The report was made 38 minutes ago, at 03:50 UTC
Wind 10 kt from the North
Temperature 6°C
Humidity 75%
Pressure 995 hPa
Visibility 10 km or more

METAR: EGPB 240350Z AUTO 01010KT 9999 FEW030/// 06/02 Q0995

Time: 05:28 (04:28 UTC)

Forecast

The report was made 2 hours and 33 minutes ago, at 01:55 UTC
Forecast valid from 24 at 03 UTC to 24 at 12 UTC
Wind 12 kt from the North/Northeast
Visibility 10 km or more
Scattered clouds at a height of 3000 ft
Probability 30% :
Temporary
from 24 at 06 UTC to 24 at 12 UTC
Wind 17 kt from the North with gusts up to 27 kt

TAF: EGPB 240155Z 2403/2412 02012KT 9999 SCT030 PROB30 TEMPO 2406/2412 36017G27KT

Weather observations and forecasts of more than 4000 airports (METAR and TAF reports).

The available stations are represented by yellow and red dots on the map.

Hover mouse over dot to see the name of the station.

Then click to see weather observations and forecasts.

To change the map : click on the green buttons with a black cross to zoom in, on the green button with a dash to zoom out, or on the green arrows for adjacent maps.


METAR-TAF: